Schedule Details


Flight Number: CTN381
Departure: Fiumicino (LIRF) at 18:00
Arrival: Kastela (LDSP) at 19:15
Route: OKUNO UL5 VAPUP

Weather Information
LIRF 172220Z VRB02KT CAVOK 20/18 Q1018 NOSIG
LDSP 172230Z AUTO 34001KT CAVOK 21/13 Q1017
Schedule Frequency

Route Map